INDIA METEOROLOGICAL DEPARTMENT, R.M.C. NEW DELHI
Dated:29-02-2024
METARS


Agartala   
VEAT 291430Z 00000KT 3000 BR NSC 22/19 Q1014 NOSIG=
Ahmedabad  
VAAH 291430Z 31002KT 4000 FU NSC 30/10 Q1010 NOSIG=
Allahabad  
VEAB 291400Z VRB02KT 6000 SKC 20/16 Q1014 NOSIG=
Aurangabad 
VAAU 291400Z 00000KT 6000 NSC 27/15 Q1014 TEMPO 4000 HZ=
Bangalore  
VOBL 291430Z 11012KT 6000 FEW015 25/09 Q1018 NOSIG=
Baroda     
VABO 291430Z 07003KT 4000 FU NSC 31/15 Q1010 NOSIG=
Bhopal     
VABP 291400Z 07003KT 5000 HZ NSC 26/13 Q1015 NOSIG=
Bhubaneswar
VEBS 291430Z 16006KT 4000 HZ SCT020 SCT100 27/23 Q1015 NOSIG=
Chennai    
VOMM 291430Z 08008KT 6000 FEW020 28/24 Q1013 NOSIG=
Coimbatore 
VOCB 291430Z 09004KT 5000 HZ FEW015 30/22 Q1014 NOSIG=
Colombo    
VCBI 291410Z 14005G17KT 090V240 9000 SCT018 30/26 Q1010 NOSIG=
Delhi      
VIDP 291430Z 26003KT 4000 HZ FEW100 20/09 Q1016 NOSIG=
Dehradun   
VIDN 291430Z 04003KT 4000 HZ NSC 15/12 Q1016 NOSIG=
Gauhati    
VEGT 291430Z 17002KT 2500 BR FEW020 SCT100 20/16 Q1014 NOSIG=
Gaya       
VEGY 291430Z 27002KT 4500 HZ NSC 19/12 Q1015 NOSIG=
Goa        
VOGO 291400Z 18004KT 5000 BR NSC 29/26 Q1009 NOSIG=
Hyderabad  
VOHS 291430Z NIL=
Indore     
VAID 291430Z 00000KT 6000 NSC 27/13 Q1015 NOSIG=
Jabalpur   
VAJB 291430Z 08005KT 4000 HZ NSC 24/13 Q1016 NOSIG=
Jaipur     
VIJP 291430Z 00000KT 4500 HZ NSC 24/10 Q1016 NOSIG=
Kochi      
VOCI 291430Z 26003KT 4000 HZ FEW015 30/25 Q1011 NOSIG=
Kolkata    
VECC 291430Z 00000KT 3500 HZ NSC 25/16 Q1014 NOSIG=
Kozhikode  
VOCL 291430Z 24005KT 6000 FEW015 28/22 Q1011 NOSIG=
Lucknow    
VILK 291430Z 27004KT 5000 HZ NSC 19/12 Q1014 NOSIG=
Madurai    
VOMD 291430Z 11007KT 5000 HZ FEW020 29/18 Q1013 NOSIG=
Mumbai     
VABB 291430Z 33003KT 2500 FU FEW020 30/20 Q1010 NOSIG=
Nagpur     
VANP 291430Z 02003KT 3000 HZ SCT020 SCT100 28/18 Q1015 NOSIG=
Patna      
VEPT 291430Z 28005KT 5000 HZ NSC 24/17 Q1014 NOSIG=
Raipur     
VERP 291430Z 11004KT 3000 HZ NSC 26/14 Q1014 NOSIG=
Surat     
VASU 291430Z 31006KT 4000 FU NSC 27/16 Q1010 NOSIG=
Ranchi     
VERC 291430Z 33005KT 4000 HZ NSC 20/08 Q1018 NOSIG=
Trichy     
VOTR 291430Z 09008KT 4000 HZ FEW016 30/21 Q1012 NOSIG=
Trivandrum 
VOTV 291430Z 31004KT 5000 HZ FEW015 30/23 Q1011 NOSIG=
Udaipur    
VAUD 291430Z 15003KT 5000 HZ NSC 25/10 Q1014 NOSIG=
Varanasi   
VEBN 291430Z 27003KT 3000 HZ NSC 21/14 Q1014 NOSIG=
Vizag      
VOVZ 291330Z 16005KT 4000 HZ FEW018 SCT090 28/22 Q1013 NOSIG=
Male       
VRMM 291400Z 09016KT 7000 SCT017TCU BKN260 30/25 Q1011 TEMPO 5000 SHRA=
Gan        
VRMG 291400Z 07006KT 8000 -RA FEW017TCU OVC100 28/26 Q1010 TEMPO 4000 TSRA=
Kathmandu  
VNKT 291430Z 25005KT 7000 FEW015 15/08 Q1018 NOSIG=
Dhaka      
VGHS 291430Z 31003KT 4000 HZ NSC 25/15 Q1014 NOSIG=
Colombo    
VCBI 291410Z 14005G17KT 090V240 9000 SCT018 30/26 Q1010 NOSIG=
Karachi    
OPKC 291430Z 24008KT 5000 HZ BKN100 27/08 Q1011 NOSIG=
Lahore     
OPLA 291425Z 36004KT 6000 SCT040 BKN100 22/08 Q1015 NOSIG RMK QFE989 A29.98=
Gorakhpur  
VEGK 291400Z 00000KT 6000 SKC 19/15 Q1013 NOSIG=
Agra       
VIAG 291400Z VRB02KT 6000 FEW250 24/06 Q1013 NOSIG=
Bagdogra   
VEBD 291400Z VRB01KT 5000 HZ FEW100 23/16 Q1013 NOSIG=
Gwalior    
VIGR 291400Z VRB02KT 6000 SKC 21/07 Q1015 NOSIG=
Pune       
VAPO 291400Z 10003KT 6000 FEW100 SCT250 30/08 Q1015 NOSIG=
Jamnagar   
VAJM 291400Z 29006KT 5000 HZ FEW200 27/18 Q1010 NOSIG=
Pathankot   
VIPK 291400Z VRB02KT 6000 FEW025 BKN100 BKN200 19/14 Q1015 NOSIG=